sensor_id;sensor_type;location;lat;lon;timestamp;temperature;humidity
22984;DHT22;11658;48.908;9.140;2023-08-17T04:02:56;19.50;99.90
22984;DHT22;11658;48.908;9.140;2023-08-17T04:05:21;19.60;99.90
22984;DHT22;11658;48.908;9.140;2023-08-17T04:07:47;19.60;99.90
22984;DHT22;11658;48.908;9.140;2023-08-17T04:10:13;19.60;99.90
22984;DHT22;11658;48.908;9.140;2023-08-17T04:12:38;19.60;99.90
22984;DHT22;11658;48.908;9.140;2023-08-17T04:15:04;19.50;99.90
22984;DHT22;11658;48.908;9.140;2023-08-17T04:17:30;19.40;99.90
22984;DHT22;11658;48.908;9.140;2023-08-17T04:19:56;19.50;99.90
22984;DHT22;11658;48.908;9.140;2023-08-17T04:22:21;19.40;99.90
22984;DHT22;11658;48.908;9.140;2023-08-17T04:24:47;19.50;99.90
22984;DHT22;11658;48.908;9.140;2023-08-17T04:27:12;19.50;99.90
22984;DHT22;11658;48.908;9.140;2023-08-17T04:29:39;19.50;99.90
22984;DHT22;11658;48.908;9.140;2023-08-17T04:32:05;19.50;99.90
22984;DHT22;11658;48.908;9.140;2023-08-17T04:34:30;19.50;99.90
22984;DHT22;11658;48.908;9.140;2023-08-17T04:36:56;19.50;99.90
22984;DHT22;11658;48.908;9.140;2023-08-17T04:39:22;19.60;99.90
22984;DHT22;11658;48.908;9.140;2023-08-17T04:41:47;19.70;99.90
22984;DHT22;11658;48.908;9.140;2023-08-17T04:44:13;19.70;99.90
22984;DHT22;11658;48.908;9.140;2023-08-17T04:46:39;19.80;99.90
22984;DHT22;11658;48.908;9.140;2023-08-17T04:49:04;19.90;99.90
22984;DHT22;11658;48.908;9.140;2023-08-17T04:51:30;20.00;99.90
22984;DHT22;11658;48.908;9.140;2023-08-17T04:53:56;20.00;99.90
22984;DHT22;11658;48.908;9.140;2023-08-17T04:56:21;20.10;99.90
22984;DHT22;11658;48.908;9.140;2023-08-17T04:58:47;20.20;99.90
22984;DHT22;11658;48.908;9.140;2023-08-17T05:01:12;20.20;99.90
22984;DHT22;11658;48.908;9.140;2023-08-17T05:03:38;20.00;99.90
22984;DHT22;11658;48.908;9.140;2023-08-17T05:06:03;20.30;99.90
22984;DHT22;11658;48.908;9.140;2023-08-17T05:08:29;20.30;99.90
22984;DHT22;11658;48.908;9.140;2023-08-17T05:10:55;20.30;99.90
22984;DHT22;11658;48.908;9.140;2023-08-17T05:13:20;20.30;99.90
22984;DHT22;11658;48.908;9.140;2023-08-17T05:15:46;20.40;99.90
22984;DHT22;11658;48.908;9.140;2023-08-17T05:18:11;20.30;99.90
22984;DHT22;11658;48.908;9.140;2023-08-17T05:20:37;20.40;99.90
22984;DHT22;11658;48.908;9.140;2023-08-17T05:23:03;20.40;99.90
22984;DHT22;11658;48.908;9.140;2023-08-17T05:25:29;20.50;99.90
22984;DHT22;11658;48.908;9.140;2023-08-17T05:27:55;20.40;99.90
22984;DHT22;11658;48.908;9.140;2023-08-17T05:30:21;20.50;99.90
22984;DHT22;11658;48.908;9.140;2023-08-17T05:32:47;20.50;99.90
22984;DHT22;11658;48.908;9.140;2023-08-17T05:35:12;20.60;99.90
22984;DHT22;11658;48.908;9.140;2023-08-17T05:37:38;20.70;99.90
22984;DHT22;11658;48.908;9.140;2023-08-17T05:40:04;20.80;99.90
22984;DHT22;11658;48.908;9.140;2023-08-17T05:42:30;20.80;99.90
22984;DHT22;11658;48.908;9.140;2023-08-17T05:44:56;20.90;99.90
22984;DHT22;11658;48.908;9.140;2023-08-17T05:47:21;20.90;99.90
22984;DHT22;11658;48.908;9.140;2023-08-17T05:49:47;21.00;99.90
22984;DHT22;11658;48.908;9.140;2023-08-17T05:52:12;21.10;99.90
22984;DHT22;11658;48.908;9.140;2023-08-17T05:54:38;21.20;99.90
22984;DHT22;11658;48.908;9.140;2023-08-17T05:57:04;21.40;99.90
22984;DHT22;11658;48.908;9.140;2023-08-17T05:59:29;21.50;99.90
22984;DHT22;11658;48.908;9.140;2023-08-17T06:01:55;21.60;99.90
22984;DHT22;11658;48.908;9.140;2023-08-17T06:04:21;21.60;99.90
22984;DHT22;11658;48.908;9.140;2023-08-17T06:06:46;21.60;99.90
22984;DHT22;11658;48.908;9.140;2023-08-17T06:09:12;21.50;99.90
22984;DHT22;11658;48.908;9.140;2023-08-17T06:11:39;21.40;99.90
22984;DHT22;11658;48.908;9.140;2023-08-17T06:14:05;21.40;99.90
22984;DHT22;11658;48.908;9.140;2023-08-17T06:16:31;21.30;99.90
22984;DHT22;11658;48.908;9.140;2023-08-17T06:18:57;21.40;99.90
22984;DHT22;11658;48.908;9.140;2023-08-17T06:21:22;21.40;99.90
22984;DHT22;11658;48.908;9.140;2023-08-17T06:23:48;21.40;99.90
22984;DHT22;11658;48.908;9.140;2023-08-17T06:26:14;21.50;99.90
22984;DHT22;11658;48.908;9.140;2023-08-17T06:28:39;21.60;99.90
22984;DHT22;11658;48.908;9.140;2023-08-17T06:31:05;21.60;99.90
22984;DHT22;11658;48.908;9.140;2023-08-17T06:33:32;21.70;99.90
22984;DHT22;11658;48.908;9.140;2023-08-17T06:35:57;21.80;99.90
22984;DHT22;11658;48.908;9.140;2023-08-17T06:38:23;21.90;99.90
22984;DHT22;11658;48.908;9.140;2023-08-17T06:40:48;21.90;99.90
22984;DHT22;11658;48.908;9.140;2023-08-17T06:43:14;22.00;99.90
22984;DHT22;11658;48.908;9.140;2023-08-17T06:45:40;22.20;99.90
22984;DHT22;11658;48.908;9.140;2023-08-17T06:48:06;22.30;99.90
22984;DHT22;11658;48.908;9.140;2023-08-17T06:50:31;22.20;99.90
22984;DHT22;11658;48.908;9.140;2023-08-17T06:52:57;22.10;99.90
22984;DHT22;11658;48.908;9.140;2023-08-17T06:55:22;22.10;99.90
22984;DHT22;11658;48.908;9.140;2023-08-17T06:57:48;22.20;99.90
22984;DHT22;11658;48.908;9.140;2023-08-17T07:00:17;22.40;99.90
22984;DHT22;11658;48.908;9.140;2023-08-17T07:02:50;22.60;99.90
22984;DHT22;11658;48.908;9.140;2023-08-17T07:05:15;22.50;99.90
22984;DHT22;11658;48.908;9.140;2023-08-17T07:07:41;22.50;99.90
22984;DHT22;11658;48.908;9.140;2023-08-17T07:10:08;22.50;99.90
22984;DHT22;11658;48.908;9.140;2023-08-17T07:12:33;22.60;99.90
22984;DHT22;11658;48.908;9.140;2023-08-17T07:14:59;22.60;99.90
22984;DHT22;11658;48.908;9.140;2023-08-17T07:17:24;22.60;99.90
22984;DHT22;11658;48.908;9.140;2023-08-17T07:19:50;22.40;99.90
22984;DHT22;11658;48.908;9.140;2023-08-17T07:22:16;22.30;99.90
22984;DHT22;11658;48.908;9.140;2023-08-17T07:24:42;22.60;99.90
22984;DHT22;11658;48.908;9.140;2023-08-17T07:27:07;22.80;99.90
22984;DHT22;11658;48.908;9.140;2023-08-17T07:29:33;22.90;99.90
22984;DHT22;11658;48.908;9.140;2023-08-17T07:31:59;23.10;99.90
22984;DHT22;11658;48.908;9.140;2023-08-17T07:34:30;23.10;99.90
22984;DHT22;11658;48.908;9.140;2023-08-17T07:36:57;23.50;99.90
22984;DHT22;11658;48.908;9.140;2023-08-17T07:39:22;23.80;99.90
22984;DHT22;11658;48.908;9.140;2023-08-17T07:41:48;24.10;99.90
22984;DHT22;11658;48.908;9.140;2023-08-17T07:44:13;24.10;99.90
22984;DHT22;11658;48.908;9.140;2023-08-17T07:46:39;24.30;99.90
22984;DHT22;11658;48.908;9.140;2023-08-17T07:49:05;24.50;99.90
22984;DHT22;11658;48.908;9.140;2023-08-17T07:51:30;24.60;99.90
22984;DHT22;11658;48.908;9.140;2023-08-17T07:53:59;25.00;99.90
22984;DHT22;11658;48.908;9.140;2023-08-17T07:56:25;25.10;99.90
22984;DHT22;11658;48.908;9.140;2023-08-17T07:58:50;25.10;99.90
22984;DHT22;11658;48.908;9.140;2023-08-17T08:01:16;25.30;99.90
22984;DHT22;11658;48.908;9.140;2023-08-17T08:03:41;25.60;99.90
22984;DHT22;11658;48.908;9.140;2023-08-17T08:06:07;26.00;99.90
22984;DHT22;11658;48.908;9.140;2023-08-17T08:08:33;26.00;99.90
22984;DHT22;11658;48.908;9.140;2023-08-17T08:10:58;25.50;99.90
22984;DHT22;11658;48.908;9.140;2023-08-17T08:13:24;25.50;99.90
22984;DHT22;11658;48.908;9.140;2023-08-17T08:15:50;25.40;99.90
22984;DHT22;11658;48.908;9.140;2023-08-17T08:18:15;24.90;99.90
22984;DHT22;11658;48.908;9.140;2023-08-17T08:20:41;24.50;99.90
22984;DHT22;11658;48.908;9.140;2023-08-17T08:23:06;24.50;99.90
22984;DHT22;11658;48.908;9.140;2023-08-17T08:25:32;24.80;99.90
22984;DHT22;11658;48.908;9.140;2023-08-17T08:27:57;24.40;99.90
22984;DHT22;11658;48.908;9.140;2023-08-17T08:30:23;24.20;99.90
22984;DHT22;11658;48.908;9.140;2023-08-17T08:32:50;24.00;99.90
22984;DHT22;11658;48.908;9.140;2023-08-17T08:35:15;24.20;99.90
22984;DHT22;11658;48.908;9.140;2023-08-17T08:37:41;24.60;99.90
22984;DHT22;11658;48.908;9.140;2023-08-17T08:40:11;24.90;99.90
22984;DHT22;11658;48.908;9.140;2023-08-17T08:42:37;24.90;99.90
22984;DHT22;11658;48.908;9.140;2023-08-17T08:45:03;25.10;99.90
22984;DHT22;11658;48.908;9.140;2023-08-17T08:47:30;25.10;99.90
22984;DHT22;11658;48.908;9.140;2023-08-17T08:50:01;25.20;99.90
22984;DHT22;11658;48.908;9.140;2023-08-17T08:52:34;25.20;99.90
22984;DHT22;11658;48.908;9.140;2023-08-17T08:55:10;25.40;99.90
22984;DHT22;11658;48.908;9.140;2023-08-17T08:57:36;25.50;99.90
22984;DHT22;11658;48.908;9.140;2023-08-17T09:00:02;25.40;99.90
22984;DHT22;11658;48.908;9.140;2023-08-17T09:02:30;25.40;99.90
22984;DHT22;11658;48.908;9.140;2023-08-17T09:04:56;25.30;99.90
22984;DHT22;11658;48.908;9.140;2023-08-17T09:07:23;25.20;99.90
22984;DHT22;11658;48.908;9.140;2023-08-17T09:09:49;25.10;99.90
22984;DHT22;11658;48.908;9.140;2023-08-17T09:12:15;25.10;99.90
22984;DHT22;11658;48.908;9.140;2023-08-17T09:14:40;24.90;99.90
22984;DHT22;11658;48.908;9.140;2023-08-17T09:17:07;25.10;99.90
22984;DHT22;11658;48.908;9.140;2023-08-17T09:19:33;25.10;99.90
22984;DHT22;11658;48.908;9.140;2023-08-17T09:22:00;25.20;99.90
22984;DHT22;11658;48.908;9.140;2023-08-17T09:24:36;25.40;99.90
22984;DHT22;11658;48.908;9.140;2023-08-17T09:27:03;25.40;99.90
22984;DHT22;11658;48.908;9.140;2023-08-17T09:29:29;25.20;99.90
22984;DHT22;11658;48.908;9.140;2023-08-17T09:32:04;25.00;99.90
22984;DHT22;11658;48.908;9.140;2023-08-17T09:34:31;25.10;99.90
22984;DHT22;11658;48.908;9.140;2023-08-17T09:37:02;25.10;99.90
22984;DHT22;11658;48.908;9.140;2023-08-17T09:39:28;25.30;99.90
22984;DHT22;11658;48.908;9.140;2023-08-17T09:41:55;25.40;99.90
22984;DHT22;11658;48.908;9.140;2023-08-17T09:44:20;25.30;99.90
22984;DHT22;11658;48.908;9.140;2023-08-17T09:46:47;25.40;99.90
22984;DHT22;11658;48.908;9.140;2023-08-17T09:49:13;25.30;99.90
22984;DHT22;11658;48.908;9.140;2023-08-17T09:51:42;25.50;99.90
22984;DHT22;11658;48.908;9.140;2023-08-17T09:54:08;25.60;99.90
22984;DHT22;11658;48.908;9.140;2023-08-17T09:56:34;25.90;99.90
22984;DHT22;11658;48.908;9.140;2023-08-17T09:59:00;26.40;99.90
22984;DHT22;11658;48.908;9.140;2023-08-17T10:01:28;26.60;99.90
22984;DHT22;11658;48.908;9.140;2023-08-17T10:03:55;26.70;99.90
22984;DHT22;11658;48.908;9.140;2023-08-17T10:06:24;26.70;99.90
22984;DHT22;11658;48.908;9.140;2023-08-17T10:08:53;26.40;99.90
22984;DHT22;11658;48.908;9.140;2023-08-17T10:11:21;26.10;99.90
22984;DHT22;11658;48.908;9.140;2023-08-17T10:14:16;26.00;99.90
22984;DHT22;11658;48.908;9.140;2023-08-17T10:16:53;26.40;99.90
22984;DHT22;11658;48.908;9.140;2023-08-17T10:24:43;26.10;99.90
22984;DHT22;11658;48.908;9.140;2023-08-17T10:27:10;26.30;99.90
22984;DHT22;11658;48.908;9.140;2023-08-17T10:29:38;26.00;99.90
22984;DHT22;11658;48.908;9.140;2023-08-17T10:32:06;25.90;99.90
22984;DHT22;11658;48.908;9.140;2023-08-17T10:34:35;26.20;99.90
22984;DHT22;11658;48.908;9.140;2023-08-17T10:37:01;26.20;99.90
22984;DHT22;11658;48.908;9.140;2023-08-17T10:39:29;26.20;99.90
22984;DHT22;11658;48.908;9.140;2023-08-17T10:41:56;26.30;99.90
22984;DHT22;11658;48.908;9.140;2023-08-17T10:47:32;26.00;99.90
22984;DHT22;11658;48.908;9.140;2023-08-17T10:50:02;25.90;99.90
22984;DHT22;11658;48.908;9.140;2023-08-17T10:52:30;25.80;99.90
22984;DHT22;11658;48.908;9.140;2023-08-17T10:54:59;26.00;99.90
22984;DHT22;11658;48.908;9.140;2023-08-17T10:57:35;26.20;99.90
22984;DHT22;11658;48.908;9.140;2023-08-17T11:02:42;26.60;99.90
22984;DHT22;11658;48.908;9.140;2023-08-17T11:05:09;26.40;99.90
22984;DHT22;11658;48.908;9.140;2023-08-17T11:07:44;26.30;99.90
22984;DHT22;11658;48.908;9.140;2023-08-17T11:10:30;26.30;99.90
22984;DHT22;11658;48.908;9.140;2023-08-17T11:12:59;26.40;99.90
22984;DHT22;11658;48.908;9.140;2023-08-17T11:15:26;26.50;99.90
22984;DHT22;11658;48.908;9.140;2023-08-17T11:17:59;26.50;99.90
22984;DHT22;11658;48.908;9.140;2023-08-17T11:20:25;26.50;99.90
22984;DHT22;11658;48.908;9.140;2023-08-17T11:22:50;26.90;99.90
22984;DHT22;11658;48.908;9.140;2023-08-17T11:25:17;27.20;99.90
22984;DHT22;11658;48.908;9.140;2023-08-17T11:27:43;27.30;99.90
22984;DHT22;11658;48.908;9.140;2023-08-17T11:30:09;27.50;99.90
22984;DHT22;11658;48.908;9.140;2023-08-17T11:32:35;27.40;99.90
22984;DHT22;11658;48.908;9.140;2023-08-17T11:35:01;27.60;99.90
22984;DHT22;11658;48.908;9.140;2023-08-17T11:37:26;27.70;99.90
22984;DHT22;11658;48.908;9.140;2023-08-17T11:39:52;28.00;99.90
22984;DHT22;11658;48.908;9.140;2023-08-17T11:42:17;28.10;99.90
22984;DHT22;11658;48.908;9.140;2023-08-17T11:44:43;28.00;99.90
22984;DHT22;11658;48.908;9.140;2023-08-17T11:47:10;27.90;99.90
22984;DHT22;11658;48.908;9.140;2023-08-17T11:49:37;27.60;99.90
22984;DHT22;11658;48.908;9.140;2023-08-17T11:52:02;27.40;99.90
22984;DHT22;11658;48.908;9.140;2023-08-17T11:54:28;27.30;99.90
22984;DHT22;11658;48.908;9.140;2023-08-17T11:56:57;27.50;99.90
22984;DHT22;11658;48.908;9.140;2023-08-17T11:59:23;27.70;99.90
22984;DHT22;11658;48.908;9.140;2023-08-17T12:01:49;27.70;99.90
22984;DHT22;11658;48.908;9.140;2023-08-17T12:04:15;27.60;99.90
22984;DHT22;11658;48.908;9.140;2023-08-17T12:06:44;27.60;99.90
22984;DHT22;11658;48.908;9.140;2023-08-17T12:09:10;27.50;99.90
22984;DHT22;11658;48.908;9.140;2023-08-17T12:11:39;27.60;99.90
22984;DHT22;11658;48.908;9.140;2023-08-17T12:14:11;27.60;99.90
22984;DHT22;11658;48.908;9.140;2023-08-17T12:16:49;27.80;99.90
22984;DHT22;11658;48.908;9.140;2023-08-17T12:19:15;28.00;99.90
22984;DHT22;11658;48.908;9.140;2023-08-17T12:21:42;27.90;99.90
22984;DHT22;11658;48.908;9.140;2023-08-17T12:24:09;27.80;99.90
22984;DHT22;11658;48.908;9.140;2023-08-17T12:26:35;28.00;99.90
22984;DHT22;11658;48.908;9.140;2023-08-17T12:29:05;28.20;99.90
22984;DHT22;11658;48.908;9.140;2023-08-17T12:31:31;28.50;99.90
22984;DHT22;11658;48.908;9.140;2023-08-17T12:33:57;28.10;99.90
22984;DHT22;11658;48.908;9.140;2023-08-17T12:36:22;28.10;99.90
22984;DHT22;11658;48.908;9.140;2023-08-17T12:38:48;28.30;99.90
22984;DHT22;11658;48.908;9.140;2023-08-17T12:41:14;28.60;99.90
22984;DHT22;11658;48.908;9.140;2023-08-17T12:43:39;28.70;99.90
22984;DHT22;11658;48.908;9.140;2023-08-17T12:46:05;28.70;99.90
22984;DHT22;11658;48.908;9.140;2023-08-17T12:48:30;28.60;99.90
22984;DHT22;11658;48.908;9.140;2023-08-17T12:50:56;28.30;99.90
22984;DHT22;11658;48.908;9.140;2023-08-17T12:53:22;28.30;99.90
22984;DHT22;11658;48.908;9.140;2023-08-17T12:55:47;28.30;99.90
22984;DHT22;11658;48.908;9.140;2023-08-17T12:58:13;28.20;99.90
22984;DHT22;11658;48.908;9.140;2023-08-17T13:00:39;28.20;99.90
22984;DHT22;11658;48.908;9.140;2023-08-17T13:03:04;27.80;99.90
22984;DHT22;11658;48.908;9.140;2023-08-17T13:05:30;27.10;99.90
22984;DHT22;11658;48.908;9.140;2023-08-17T13:07:56;26.70;99.90
22984;DHT22;11658;48.908;9.140;2023-08-17T13:10:21;26.30;99.90
22984;DHT22;11658;48.908;9.140;2023-08-17T13:12:47;26.00;99.90
22984;DHT22;11658;48.908;9.140;2023-08-17T13:15:13;25.80;99.90
22984;DHT22;11658;48.908;9.140;2023-08-17T13:17:38;25.60;99.90
22984;DHT22;11658;48.908;9.140;2023-08-17T13:20:05;25.50;99.90
22984;DHT22;11658;48.908;9.140;2023-08-17T13:22:31;25.50;99.90
22984;DHT22;11658;48.908;9.140;2023-08-17T13:24:57;25.30;99.90
22984;DHT22;11658;48.908;9.140;2023-08-17T13:27:23;25.30;99.90
22984;DHT22;11658;48.908;9.140;2023-08-17T13:29:48;25.00;99.90
22984;DHT22;11658;48.908;9.140;2023-08-17T13:32:14;24.70;99.90
22984;DHT22;11658;48.908;9.140;2023-08-17T13:34:40;24.50;99.90
22984;DHT22;11658;48.908;9.140;2023-08-17T13:37:05;24.20;99.90
22984;DHT22;11658;48.908;9.140;2023-08-17T13:39:31;24.20;99.90
22984;DHT22;11658;48.908;9.140;2023-08-17T13:41:57;24.00;99.90
22984;DHT22;11658;48.908;9.140;2023-08-17T13:44:23;23.90;99.90
22984;DHT22;11658;48.908;9.140;2023-08-17T13:46:49;23.70;99.90
22984;DHT22;11658;48.908;9.140;2023-08-17T13:49:14;23.60;99.90
22984;DHT22;11658;48.908;9.140;2023-08-17T13:51:40;23.60;99.90
22984;DHT22;11658;48.908;9.140;2023-08-17T13:54:05;23.50;99.90
22984;DHT22;11658;48.908;9.140;2023-08-17T13:56:31;23.40;99.90
22984;DHT22;11658;48.908;9.140;2023-08-17T13:58:56;23.50;99.90
22984;DHT22;11658;48.908;9.140;2023-08-17T14:01:22;23.50;99.90
22984;DHT22;11658;48.908;9.140;2023-08-17T14:03:48;23.50;99.90
22984;DHT22;11658;48.908;9.140;2023-08-17T14:06:13;23.50;99.90
22984;DHT22;11658;48.908;9.140;2023-08-17T14:08:39;23.50;99.90
22984;DHT22;11658;48.908;9.140;2023-08-17T14:11:04;23.40;99.90
22984;DHT22;11658;48.908;9.140;2023-08-17T14:13:31;23.70;99.90
22984;DHT22;11658;48.908;9.140;2023-08-17T14:15:57;23.80;99.90
22984;DHT22;11658;48.908;9.140;2023-08-17T14:18:25;23.70;99.90
22984;DHT22;11658;48.908;9.140;2023-08-17T14:20:50;23.90;99.90
22984;DHT22;11658;48.908;9.140;2023-08-17T14:23:16;24.10;99.90
22984;DHT22;11658;48.908;9.140;2023-08-17T14:25:41;24.20;99.90
22984;DHT22;11658;48.908;9.140;2023-08-17T14:28:07;24.40;99.90
22984;DHT22;11658;48.908;9.140;2023-08-17T14:30:33;24.50;99.90
22984;DHT22;11658;48.908;9.140;2023-08-17T14:32:59;24.60;99.90
22984;DHT22;11658;48.908;9.140;2023-08-17T14:35:25;24.80;99.90
22984;DHT22;11658;48.908;9.140;2023-08-17T14:37:51;24.90;99.90
22984;DHT22;11658;48.908;9.140;2023-08-17T14:40:16;25.10;99.90
22984;DHT22;11658;48.908;9.140;2023-08-17T14:42:42;25.20;99.90
22984;DHT22;11658;48.908;9.140;2023-08-17T14:45:08;25.40;99.90
22984;DHT22;11658;48.908;9.140;2023-08-17T14:47:34;25.50;99.90
22984;DHT22;11658;48.908;9.140;2023-08-17T14:49:59;25.60;99.90
22984;DHT22;11658;48.908;9.140;2023-08-17T14:52:25;25.60;99.90
22984;DHT22;11658;48.908;9.140;2023-08-17T14:54:51;25.40;99.90
22984;DHT22;11658;48.908;9.140;2023-08-17T14:57:17;25.50;99.90
22984;DHT22;11658;48.908;9.140;2023-08-17T14:59:42;25.70;99.90
22984;DHT22;11658;48.908;9.140;2023-08-17T15:02:08;25.80;99.90
22984;DHT22;11658;48.908;9.140;2023-08-17T15:04:36;25.90;99.90
22984;DHT22;11658;48.908;9.140;2023-08-17T15:07:04;26.10;99.90
22984;DHT22;11658;48.908;9.140;2023-08-17T15:09:35;26.50;99.90
22984;DHT22;11658;48.908;9.140;2023-08-17T15:12:00;26.80;99.90
22984;DHT22;11658;48.908;9.140;2023-08-17T15:14:26;27.00;99.90
22984;DHT22;11658;48.908;9.140;2023-08-17T15:16:51;27.20;99.90
22984;DHT22;11658;48.908;9.140;2023-08-17T15:19:17;27.20;99.90
22984;DHT22;11658;48.908;9.140;2023-08-17T15:21:42;27.00;99.90
22984;DHT22;11658;48.908;9.140;2023-08-17T15:24:08;27.00;99.90
22984;DHT22;11658;48.908;9.140;2023-08-17T15:26:34;27.10;99.90
22984;DHT22;11658;48.908;9.140;2023-08-17T15:28:59;27.10;99.90
22984;DHT22;11658;48.908;9.140;2023-08-17T15:31:25;27.30;99.90
22984;DHT22;11658;48.908;9.140;2023-08-17T15:33:50;27.30;99.90
22984;DHT22;11658;48.908;9.140;2023-08-17T15:36:16;27.50;99.90
22984;DHT22;11658;48.908;9.140;2023-08-17T15:38:47;27.40;99.90
22984;DHT22;11658;48.908;9.140;2023-08-17T15:41:13;27.30;99.90
22984;DHT22;11658;48.908;9.140;2023-08-17T15:43:38;27.40;99.90
22984;DHT22;11658;48.908;9.140;2023-08-17T15:46:04;27.60;99.90
22984;DHT22;11658;48.908;9.140;2023-08-17T15:48:31;27.70;99.90
22984;DHT22;11658;48.908;9.140;2023-08-17T15:50:56;27.50;99.90
22984;DHT22;11658;48.908;9.140;2023-08-17T15:53:22;27.00;99.90
22984;DHT22;11658;48.908;9.140;2023-08-17T15:55:48;26.70;99.90
22984;DHT22;11658;48.908;9.140;2023-08-17T15:58:13;26.50;99.90
22984;DHT22;11658;48.908;9.140;2023-08-17T16:00:39;26.60;99.90
22984;DHT22;11658;48.908;9.140;2023-08-17T16:03:05;26.80;99.90
22984;DHT22;11658;48.908;9.140;2023-08-17T16:05:31;26.80;99.90
22984;DHT22;11658;48.908;9.140;2023-08-17T16:07:56;26.90;99.90
22984;DHT22;11658;48.908;9.140;2023-08-17T16:10:22;26.90;99.90
22984;DHT22;11658;48.908;9.140;2023-08-17T16:12:48;27.00;99.90
22984;DHT22;11658;48.908;9.140;2023-08-17T16:15:13;27.30;99.90
22984;DHT22;11658;48.908;9.140;2023-08-17T16:17:39;27.50;99.90
22984;DHT22;11658;48.908;9.140;2023-08-17T16:20:05;27.70;99.90
22984;DHT22;11658;48.908;9.140;2023-08-17T16:22:31;27.70;99.90
22984;DHT22;11658;48.908;9.140;2023-08-17T16:24:57;27.40;99.90
22984;DHT22;11658;48.908;9.140;2023-08-17T16:27:22;27.30;99.90
22984;DHT22;11658;48.908;9.140;2023-08-17T16:29:48;27.30;99.90
22984;DHT22;11658;48.908;9.140;2023-08-17T16:32:13;27.30;99.90
22984;DHT22;11658;48.908;9.140;2023-08-17T16:34:39;27.10;99.90
22984;DHT22;11658;48.908;9.140;2023-08-17T16:37:04;27.30;99.90
22984;DHT22;11658;48.908;9.140;2023-08-17T16:39:30;27.40;99.90
22984;DHT22;11658;48.908;9.140;2023-08-17T16:41:59;27.50;99.90
22984;DHT22;11658;48.908;9.140;2023-08-17T16:44:24;27.50;99.90
22984;DHT22;11658;48.908;9.140;2023-08-17T16:46:50;27.40;99.90
22984;DHT22;11658;48.908;9.140;2023-08-17T16:49:16;27.20;99.90
22984;DHT22;11658;48.908;9.140;2023-08-17T16:51:42;27.10;99.90
22984;DHT22;11658;48.908;9.140;2023-08-17T16:54:08;26.90;99.90
22984;DHT22;11658;48.908;9.140;2023-08-17T16:56:34;26.80;99.90
22984;DHT22;11658;48.908;9.140;2023-08-17T16:58:59;26.90;99.90
22984;DHT22;11658;48.908;9.140;2023-08-17T17:01:25;26.70;99.90
22984;DHT22;11658;48.908;9.140;2023-08-17T17:03:51;26.60;99.90
22984;DHT22;11658;48.908;9.140;2023-08-17T17:06:18;27.00;99.90
22984;DHT22;11658;48.908;9.140;2023-08-17T17:08:43;27.90;99.90
22984;DHT22;11658;48.908;9.140;2023-08-17T17:11:09;28.80;99.90
22984;DHT22;11658;48.908;9.140;2023-08-17T17:13:35;29.10;99.90
22984;DHT22;11658;48.908;9.140;2023-08-17T17:16:01;29.20;99.90
22984;DHT22;11658;48.908;9.140;2023-08-17T17:18:27;29.00;99.90
22984;DHT22;11658;48.908;9.140;2023-08-17T17:20:52;28.70;99.90
22984;DHT22;11658;48.908;9.140;2023-08-17T17:23:18;28.30;99.90
22984;DHT22;11658;48.908;9.140;2023-08-17T17:25:44;27.80;99.90
22984;DHT22;11658;48.908;9.140;2023-08-17T17:28:09;27.40;99.90
22984;DHT22;11658;48.908;9.140;2023-08-17T17:30:35;27.10;99.90
22984;DHT22;11658;48.908;9.140;2023-08-17T17:33:01;26.80;99.90
22984;DHT22;11658;48.908;9.140;2023-08-17T17:35:26;26.60;99.90
22984;DHT22;11658;48.908;9.140;2023-08-17T17:37:52;26.50;99.90
22984;DHT22;11658;48.908;9.140;2023-08-17T17:40:17;26.20;99.90
22984;DHT22;11658;48.908;9.140;2023-08-17T17:42:43;26.10;99.90
22984;DHT22;11658;48.908;9.140;2023-08-17T17:45:08;25.90;99.90
22984;DHT22;11658;48.908;9.140;2023-08-17T17:47:34;25.70;99.90
22984;DHT22;11658;48.908;9.140;2023-08-17T17:50:09;25.60;99.90
22984;DHT22;11658;48.908;9.140;2023-08-17T17:52:35;25.50;99.90
22984;DHT22;11658;48.908;9.140;2023-08-17T17:55:00;25.50;99.90
22984;DHT22;11658;48.908;9.140;2023-08-17T17:57:27;25.50;99.90
22984;DHT22;11658;48.908;9.140;2023-08-17T17:59:53;25.40;99.90
22984;DHT22;11658;48.908;9.140;2023-08-17T18:02:24;25.40;99.90
22984;DHT22;11658;48.908;9.140;2023-08-17T18:04:50;25.30;99.90
22984;DHT22;11658;48.908;9.140;2023-08-17T18:07:17;25.30;99.90
22984;DHT22;11658;48.908;9.140;2023-08-17T18:09:43;25.10;99.90
22984;DHT22;11658;48.908;9.140;2023-08-17T18:12:08;25.00;99.90
22984;DHT22;11658;48.908;9.140;2023-08-17T18:14:34;24.90;99.90
22984;DHT22;11658;48.908;9.140;2023-08-17T18:17:00;24.80;99.90
22984;DHT22;11658;48.908;9.140;2023-08-17T18:19:25;24.60;99.90
22984;DHT22;11658;48.908;9.140;2023-08-17T18:21:51;24.60;99.90
22984;DHT22;11658;48.908;9.140;2023-08-17T18:24:16;24.50;99.90
22984;DHT22;11658;48.908;9.140;2023-08-17T18:26:42;24.50;99.90
22984;DHT22;11658;48.908;9.140;2023-08-17T18:29:07;24.40;99.90
22984;DHT22;11658;48.908;9.140;2023-08-17T18:31:33;24.40;99.90
22984;DHT22;11658;48.908;9.140;2023-08-17T18:33:59;24.40;99.90
22984;DHT22;11658;48.908;9.140;2023-08-17T18:36:25;24.40;99.90
22984;DHT22;11658;48.908;9.140;2023-08-17T18:38:51;24.30;99.90
22984;DHT22;11658;48.908;9.140;2023-08-17T18:41:16;24.20;99.90
22984;DHT22;11658;48.908;9.140;2023-08-17T18:43:42;24.20;99.90
22984;DHT22;11658;48.908;9.140;2023-08-17T18:46:07;24.10;99.90
22984;DHT22;11658;48.908;9.140;2023-08-17T18:48:33;24.10;99.90
22984;DHT22;11658;48.908;9.140;2023-08-17T18:50:59;24.00;99.90
22984;DHT22;11658;48.908;9.140;2023-08-17T18:53:24;23.90;99.90
22984;DHT22;11658;48.908;9.140;2023-08-17T18:55:50;23.90;99.90
22984;DHT22;11658;48.908;9.140;2023-08-17T18:58:18;23.90;99.90
22984;DHT22;11658;48.908;9.140;2023-08-17T19:00:45;23.80;99.90
22984;DHT22;11658;48.908;9.140;2023-08-17T19:03:11;23.80;99.90
22984;DHT22;11658;48.908;9.140;2023-08-17T19:05:36;23.70;99.90
22984;DHT22;11658;48.908;9.140;2023-08-17T19:08:02;23.60;99.90
22984;DHT22;11658;48.908;9.140;2023-08-17T19:10:28;23.50;99.90
22984;DHT22;11658;48.908;9.140;2023-08-17T19:12:53;23.30;99.90
22984;DHT22;11658;48.908;9.140;2023-08-17T19:15:19;23.30;99.90
22984;DHT22;11658;48.908;9.140;2023-08-17T19:17:44;23.10;99.90
22984;DHT22;11658;48.908;9.140;2023-08-17T19:20:10;23.10;99.90
22984;DHT22;11658;48.908;9.140;2023-08-17T19:22:36;23.10;99.90
22984;DHT22;11658;48.908;9.140;2023-08-17T19:25:03;23.00;99.90
22984;DHT22;11658;48.908;9.140;2023-08-17T19:27:29;23.00;99.90
22984;DHT22;11658;48.908;9.140;2023-08-17T19:29:55;22.90;99.90
22984;DHT22;11658;48.908;9.140;2023-08-17T19:32:21;22.80;99.90
22984;DHT22;11658;48.908;9.140;2023-08-17T19:34:49;22.70;99.90
22984;DHT22;11658;48.908;9.140;2023-08-17T19:37:14;22.70;99.90